createdAt,value
2022-08-05T00:01:52.521Z,4.40
2022-08-05T00:04:21.257Z,3.22
2022-08-05T00:06:51.932Z,2.30
2022-08-05T00:09:20.564Z,3.30
2022-08-05T00:14:35.510Z,3.78
2022-08-05T00:17:03.839Z,3.22
2022-08-05T00:20:02.217Z,3.53
2022-08-05T00:22:31.948Z,2.67
2022-08-05T00:25:18.439Z,2.88
2022-08-05T00:28:05.860Z,2.55
2022-08-05T00:30:33.931Z,4.13
2022-08-05T00:33:02.272Z,3.13
2022-08-05T00:35:33.203Z,2.28
2022-08-05T00:38:02.198Z,2.97
2022-08-05T00:40:51.929Z,2.78
2022-08-05T00:43:46.721Z,3.20
2022-08-05T00:46:15.718Z,2.38
2022-08-05T00:49:02.545Z,3.25
2022-08-05T00:51:50.609Z,2.95
2022-08-05T00:54:37.701Z,3.35
2022-08-05T00:57:05.831Z,3.20
2022-08-05T00:59:34.534Z,3.15
2022-08-05T01:02:31.187Z,2.42
2022-08-05T01:04:59.523Z,2.83
2022-08-05T01:07:27.813Z,3.00
2022-08-05T01:10:00.439Z,2.70
2022-08-05T01:12:29.693Z,2.70
2022-08-05T01:15:05.167Z,2.42
2022-08-05T01:17:44.265Z,3.47
2022-08-05T01:20:49.106Z,3.20
2022-08-05T01:23:35.476Z,2.28
2022-08-05T01:26:27.103Z,2.90
2022-08-05T01:29:30.752Z,2.97
2022-08-05T01:32:04.510Z,2.63
2022-08-05T01:34:55.429Z,2.40
2022-08-05T01:37:44.688Z,2.45
2022-08-05T01:40:17.824Z,2.05
2022-08-05T01:42:47.486Z,2.90
2022-08-05T01:45:43.014Z,2.30
2022-08-05T01:48:32.377Z,2.40
2022-08-05T01:51:11.867Z,2.58
2022-08-05T01:53:54.971Z,2.42
2022-08-05T01:58:09.879Z,2.95
2022-08-05T01:59:47.279Z,2.78
2022-08-05T02:02:17.979Z,2.20
2022-08-05T02:04:49.633Z,2.30
2022-08-05T02:09:51.415Z,2.95
2022-08-05T02:12:47.153Z,1.95
2022-08-05T02:15:33.287Z,2.67
2022-08-05T02:18:32.446Z,2.13
2022-08-05T02:21:15.224Z,2.30
2022-08-05T02:23:46.794Z,2.15
2022-08-05T02:26:22.438Z,2.50
2022-08-05T02:28:52.145Z,1.90
2022-08-05T02:31:26.987Z,2.15
2022-08-05T02:34:05.344Z,1.83
2022-08-05T02:36:36.978Z,2.80
2022-08-05T02:39:25.395Z,3.00
2022-08-05T02:42:01.347Z,1.60
2022-08-05T02:47:18.343Z,2.80
2022-08-05T02:49:48.693Z,2.42
2022-08-05T02:52:36.430Z,2.40
2022-08-05T02:55:10.676Z,2.58
2022-08-05T02:58:10.618Z,2.60
2022-08-05T03:00:30.092Z,3.08
2022-08-05T03:02:59.055Z,2.05
2022-08-05T03:06:54.481Z,2.38
2022-08-05T03:08:17.062Z,2.30
2022-08-05T03:11:57.850Z,2.42
2022-08-05T03:14:03.112Z,2.22
2022-08-05T03:16:32.471Z,2.67
2022-08-05T03:19:34.032Z,2.85
2022-08-05T03:22:04.858Z,2.00
2022-08-05T03:24:33.767Z,2.03
2022-08-05T03:27:03.393Z,2.08
2022-08-05T03:32:39.958Z,3.78
2022-08-05T03:35:08.934Z,2.53
2022-08-05T03:37:45.682Z,2.35
2022-08-05T03:40:24.299Z,1.90
2022-08-05T03:45:57.606Z,2.45
2022-08-05T03:48:46.910Z,2.20
2022-08-05T03:52:37.865Z,2.13
2022-08-05T03:57:16.043Z,2.67
2022-08-05T04:00:26.817Z,2.33
2022-08-05T04:02:58.311Z,2.17
2022-08-05T04:05:34.672Z,2.05
2022-08-05T04:08:40.205Z,2.60
2022-08-05T04:11:09.998Z,2.60
2022-08-05T04:13:50.233Z,2.80
2022-08-05T04:16:24.134Z,2.38
2022-08-05T04:18:54.949Z,1.80
2022-08-05T04:22:09.882Z,2.35
2022-08-05T04:24:19.481Z,3.38
2022-08-05T04:26:51.409Z,2.53
2022-08-05T04:29:19.870Z,2.10
2022-08-05T04:31:48.473Z,3.55
2022-08-05T04:34:42.618Z,3.28
2022-08-05T04:37:11.627Z,2.38
2022-08-05T04:39:40.972Z,2.53
2022-08-05T04:42:09.534Z,2.42
2022-08-05T04:44:37.585Z,2.63
2022-08-05T04:47:20.116Z,2.90
2022-08-05T04:52:34.456Z,2.95
2022-08-05T04:55:14.687Z,2.17
2022-08-05T04:57:47.869Z,2.53
2022-08-05T05:00:16.538Z,3.17
2022-08-05T05:02:44.932Z,2.15
2022-08-05T05:05:26.322Z,2.15
2022-08-05T05:08:14.311Z,2.60
2022-08-05T05:10:56.736Z,2.08
2022-08-05T05:13:24.704Z,2.03
2022-08-05T05:15:57.634Z,2.17
2022-08-05T05:21:20.518Z,2.40
2022-08-05T05:24:04.133Z,2.25
2022-08-05T05:26:36.448Z,2.15
2022-08-05T05:29:14.362Z,2.50
2022-08-05T05:31:46.386Z,2.30
2022-08-05T05:34:15.667Z,2.05
2022-08-05T05:36:45.707Z,2.35
2022-08-05T05:39:15.276Z,3.08
2022-08-05T05:41:54.252Z,2.17
2022-08-05T05:44:36.574Z,2.30
2022-08-05T05:47:13.323Z,2.55
2022-08-05T05:52:26.419Z,1.63
2022-08-05T05:55:18.325Z,2.05
2022-08-05T05:57:52.914Z,2.40
2022-08-05T06:00:27.818Z,2.72
2022-08-05T06:03:01.923Z,2.58
2022-08-05T06:05:30.196Z,2.67
2022-08-05T06:08:01.991Z,2.58
2022-08-05T06:10:34.494Z,2.33
2022-08-05T06:13:05.590Z,2.78
2022-08-05T06:16:30.805Z,2.58
2022-08-05T06:18:22.028Z,2.38
2022-08-05T06:21:00.215Z,2.20
2022-08-05T06:23:43.513Z,3.30
2022-08-05T06:26:24.071Z,3.10
2022-08-05T06:28:53.136Z,2.47
2022-08-05T06:31:22.392Z,2.67
2022-08-05T06:34:07.675Z,3.88
2022-08-05T06:36:37.391Z,3.60
2022-08-05T06:39:44.381Z,4.03
2022-08-05T06:42:13.914Z,5.18
2022-08-05T06:44:41.868Z,4.50
2022-08-05T06:47:30.105Z,6.35
2022-08-05T06:50:00.110Z,5.55
2022-08-05T06:52:38.292Z,6.25
2022-08-05T06:55:09.020Z,6.18
2022-08-05T06:57:57.228Z,5.35
2022-08-05T07:00:25.492Z,4.95
2022-08-05T07:02:54.337Z,5.15
2022-08-05T07:05:36.902Z,5.80
2022-08-05T07:08:06.621Z,4.68
2022-08-05T07:10:52.790Z,6.25
2022-08-05T07:13:58.548Z,5.18
2022-08-05T07:17:59.527Z,4.55
2022-08-05T07:22:28.482Z,4.55
2022-08-05T07:24:59.826Z,3.50
2022-08-05T07:27:57.459Z,3.90
2022-08-05T07:30:31.963Z,4.10
2022-08-05T07:33:10.026Z,3.28
2022-08-05T07:36:02.193Z,4.80
2022-08-05T07:38:33.991Z,3.13
2022-08-05T07:42:07.354Z,3.72
2022-08-05T07:43:58.174Z,2.90
2022-08-05T07:46:29.421Z,4.07
2022-08-05T07:49:04.802Z,2.90
2022-08-05T07:51:40.358Z,3.20
2022-08-05T07:54:10.238Z,3.67
2022-08-05T07:57:01.641Z,3.17
2022-08-05T07:59:38.871Z,4.13
2022-08-05T08:02:17.037Z,3.92
2022-08-05T08:04:47.438Z,3.15
2022-08-05T08:07:15.933Z,2.97
2022-08-05T08:09:43.932Z,3.58
2022-08-05T08:12:33.323Z,2.75
2022-08-05T08:15:03.525Z,3.28
2022-08-05T08:17:33.202Z,2.58
2022-08-05T08:20:22.756Z,2.83
2022-08-05T08:22:56.197Z,3.10
2022-08-05T08:25:26.965Z,3.00
2022-08-05T08:28:18.645Z,2.15
2022-08-05T08:31:00.675Z,2.40
2022-08-05T08:33:29.162Z,2.55
2022-08-05T08:36:37.557Z,2.55
2022-08-05T08:38:55.634Z,2.60
2022-08-05T08:41:51.873Z,2.50
2022-08-05T08:45:18.858Z,2.65
2022-08-05T08:47:47.681Z,2.63
2022-08-05T08:50:23.236Z,2.25
2022-08-05T08:52:54.570Z,3.10
2022-08-05T08:56:02.007Z,3.20
2022-08-05T08:58:16.554Z,2.50
2022-08-05T09:00:45.391Z,2.75
2022-08-05T09:03:16.193Z,2.17
2022-08-05T09:06:07.319Z,2.15
2022-08-05T09:08:37.248Z,2.67
2022-08-05T09:11:13.638Z,2.40
2022-08-05T09:14:10.025Z,2.10
2022-08-05T09:16:50.718Z,2.33
2022-08-05T09:19:19.008Z,2.92
2022-08-05T09:22:31.218Z,2.72
2022-08-05T09:25:01.594Z,2.35
2022-08-05T09:28:05.293Z,2.50
2022-08-05T09:30:26.019Z,2.33
2022-08-05T09:33:02.094Z,2.50
2022-08-05T09:35:30.289Z,2.47
2022-08-05T09:38:16.403Z,2.63
2022-08-05T09:40:52.465Z,2.45
2022-08-05T09:43:41.421Z,2.55
2022-08-05T09:46:35.197Z,2.90
2022-08-05T09:49:19.523Z,2.50
2022-08-05T09:51:49.592Z,5.05
2022-08-05T09:54:30.387Z,2.92
2022-08-05T09:57:01.771Z,2.47
2022-08-05T09:59:35.146Z,3.03
2022-08-05T10:02:05.572Z,2.33
2022-08-05T10:04:39.408Z,2.65
2022-08-05T10:07:19.560Z,2.60
2022-08-05T10:10:04.324Z,2.60
2022-08-05T10:12:52.384Z,2.28
2022-08-05T10:15:28.743Z,2.65
2022-08-05T10:18:11.484Z,2.65
2022-08-05T10:20:42.028Z,2.13
2022-08-05T10:23:34.730Z,2.70
2022-08-05T10:26:04.448Z,2.15
2022-08-05T10:28:36.602Z,2.33
2022-08-05T10:32:52.875Z,2.22
2022-08-05T10:36:23.476Z,2.50
2022-08-05T10:39:01.033Z,2.03
2022-08-05T10:41:45.235Z,2.40
2022-08-05T10:44:19.598Z,2.38
2022-08-05T10:46:54.004Z,2.42
2022-08-05T10:49:27.506Z,2.10
2022-08-05T10:52:20.253Z,2.53
2022-08-05T10:55:07.652Z,2.72
2022-08-05T10:57:41.557Z,2.85
2022-08-05T11:00:20.245Z,2.65
2022-08-05T11:06:15.196Z,2.75
2022-08-05T11:09:18.751Z,2.38
2022-08-05T11:12:00.671Z,2.75
2022-08-05T11:14:57.718Z,2.60
2022-08-05T11:17:57.441Z,2.20
2022-08-05T11:20:51.213Z,2.53
2022-08-05T11:23:33.358Z,2.53
2022-08-05T11:26:28.953Z,2.55
2022-08-05T11:29:13.098Z,2.22
2022-08-05T11:31:57.072Z,2.15
2022-08-05T11:34:50.945Z,2.30
2022-08-05T11:38:28.303Z,2.47
2022-08-05T11:41:34.545Z,2.30
2022-08-05T11:44:40.159Z,2.10
2022-08-05T11:47:11.044Z,2.03
2022-08-05T11:49:42.930Z,2.60
2022-08-05T11:55:07.603Z,2.25
2022-08-05T11:58:08.250Z,2.45
2022-08-05T12:00:31.965Z,2.60
2022-08-05T12:03:16.680Z,2.22
2022-08-05T12:06:05.859Z,2.42
2022-08-05T12:08:52.578Z,2.30
2022-08-05T12:11:28.256Z,2.72
2022-08-05T12:14:10.209Z,2.60
2022-08-05T12:20:26.287Z,2.10
2022-08-05T12:22:20.027Z,2.30
2022-08-05T12:24:50.487Z,2.53
2022-08-05T12:30:22.670Z,2.78
2022-08-05T12:33:07.501Z,2.40
2022-08-05T12:35:50.266Z,2.80
2022-08-05T12:38:23.272Z,2.90
2022-08-05T12:41:00.266Z,2.05
2022-08-05T12:43:32.206Z,2.33
2022-08-05T12:46:00.441Z,2.97
2022-08-05T12:48:32.943Z,3.00
2022-08-05T12:51:21.816Z,2.40
2022-08-05T12:54:14.799Z,2.20
2022-08-05T12:56:54.118Z,1.75
2022-08-05T12:59:27.463Z,2.03
2022-08-05T13:02:07.910Z,1.92
2022-08-05T13:04:52.568Z,2.22
2022-08-05T13:07:56.082Z,2.05
2022-08-05T13:10:14.944Z,1.73
2022-08-05T13:12:50.951Z,2.13
2022-08-05T13:15:41.810Z,2.17
2022-08-05T13:18:23.937Z,1.65
2022-08-05T13:20:52.152Z,2.20
2022-08-05T13:23:22.462Z,2.10
2022-08-05T13:25:59.454Z,1.80
2022-08-05T13:28:47.775Z,1.67
2022-08-05T13:31:33.723Z,2.20
2022-08-05T13:34:20.120Z,2.20
2022-08-05T13:36:54.313Z,2.40
2022-08-05T13:39:24.791Z,1.70
2022-08-05T13:42:14.695Z,2.10
2022-08-05T13:44:47.405Z,1.98
2022-08-05T13:47:34.774Z,2.15
2022-08-05T13:50:06.820Z,1.30
2022-08-05T13:52:38.468Z,1.90
2022-08-05T13:55:07.921Z,1.92
2022-08-05T13:57:50.851Z,1.85
2022-08-05T14:00:27.304Z,2.20
2022-08-05T14:03:01.093Z,2.00
2022-08-05T14:06:24.686Z,2.10
2022-08-05T14:08:21.360Z,2.28
2022-08-05T14:11:03.241Z,1.83
2022-08-05T14:13:44.741Z,2.20
2022-08-05T14:16:17.085Z,1.77
2022-08-05T14:22:08.164Z,1.65
2022-08-05T14:24:40.195Z,1.83
2022-08-05T14:27:17.571Z,1.88
2022-08-05T14:29:46.128Z,1.92
2022-08-05T14:32:21.212Z,2.17
2022-08-05T14:34:56.778Z,2.00
2022-08-05T14:37:45.307Z,1.83
2022-08-05T14:40:16.853Z,2.25
2022-08-05T14:45:13.060Z,1.88
2022-08-05T14:48:03.857Z,1.83
2022-08-05T14:50:29.833Z,2.33
2022-08-05T14:52:59.950Z,2.10
2022-08-05T14:55:52.039Z,2.22
2022-08-05T14:58:20.566Z,1.73
2022-08-05T15:00:59.283Z,2.05
2022-08-05T15:03:33.027Z,2.35
2022-08-05T15:06:07.979Z,2.50
2022-08-05T15:09:01.576Z,2.40
2022-08-05T15:11:52.495Z,2.20
2022-08-05T15:14:34.436Z,2.10
2022-08-05T15:17:44.286Z,2.50
2022-08-05T15:19:55.146Z,2.53
2022-08-05T15:22:27.299Z,1.95
2022-08-05T15:24:56.896Z,1.88
2022-08-05T15:27:25.516Z,2.72
2022-08-05T15:29:56.810Z,2.45
2022-08-05T15:32:28.639Z,2.28
2022-08-05T15:34:57.969Z,2.63
2022-08-05T15:38:33.028Z,1.85
2022-08-05T15:41:01.710Z,1.90
2022-08-05T15:43:21.224Z,2.53
2022-08-05T15:46:00.704Z,2.38
2022-08-05T15:48:30.255Z,1.95
2022-08-05T15:51:03.294Z,2.42
2022-08-05T15:53:38.313Z,2.05
2022-08-05T15:56:20.793Z,2.00
2022-08-05T15:58:49.896Z,2.20
2022-08-05T16:01:19.161Z,2.50
2022-08-05T16:03:50.776Z,2.72
2022-08-05T16:06:20.765Z,2.00
2022-08-05T16:08:53.788Z,2.38
2022-08-05T16:11:40.052Z,2.42
2022-08-05T16:14:17.075Z,2.17
2022-08-05T16:20:11.248Z,1.73
2022-08-05T16:22:27.316Z,2.45
2022-08-05T16:24:55.896Z,2.58
2022-08-05T16:27:32.310Z,2.30
2022-08-05T16:30:25.501Z,2.25
2022-08-05T16:32:54.977Z,2.50
2022-08-05T16:35:27.614Z,2.03
2022-08-05T16:38:16.199Z,2.22
2022-08-05T16:41:29.745Z,2.42
2022-08-05T16:43:56.444Z,2.00
2022-08-05T16:46:25.089Z,2.60
2022-08-05T16:48:53.133Z,1.63
2022-08-05T16:51:24.431Z,2.45
2022-08-05T16:54:05.178Z,2.13
2022-08-05T16:56:41.468Z,2.20
2022-08-05T16:59:10.616Z,1.80
2022-08-05T17:01:53.671Z,2.70
2022-08-05T17:04:28.307Z,2.35
2022-08-05T17:07:01.865Z,2.05
2022-08-05T17:12:17.360Z,2.10
2022-08-05T17:14:50.911Z,2.40
2022-08-05T17:17:19.854Z,2.67
2022-08-05T17:19:53.895Z,2.28
2022-08-05T17:22:25.945Z,2.10
2022-08-05T17:25:00.075Z,2.45
2022-08-05T17:27:33.965Z,1.90
2022-08-05T17:30:12.042Z,1.73
2022-08-05T17:32:48.975Z,2.28
2022-08-05T17:38:04.919Z,3.25
2022-08-05T17:40:33.259Z,1.92
2022-08-05T17:43:02.134Z,2.00
2022-08-05T17:45:38.648Z,2.20
2022-08-05T17:48:08.231Z,2.40
2022-08-05T17:50:36.395Z,1.88
2022-08-05T17:53:05.536Z,2.05
2022-08-05T17:55:37.549Z,2.30
2022-08-05T17:58:12.404Z,2.38
2022-08-05T18:00:45.164Z,2.10
2022-08-05T18:03:48.384Z,1.95
2022-08-05T18:06:12.369Z,2.25
2022-08-05T18:08:46.090Z,2.08
2022-08-05T18:11:24.132Z,2.35
2022-08-05T18:14:04.535Z,2.00
2022-08-05T18:16:47.009Z,2.35
2022-08-05T18:19:23.013Z,2.28
2022-08-05T18:22:08.227Z,2.10
2022-08-05T18:24:40.030Z,2.20
2022-08-05T18:27:12.427Z,2.45
2022-08-05T18:29:54.386Z,2.33
2022-08-05T18:32:28.321Z,2.47
2022-08-05T18:34:58.592Z,2.83
2022-08-05T18:37:33.995Z,1.83
2022-08-05T18:41:54.271Z,2.30
2022-08-05T18:43:00.664Z,2.30
2022-08-05T18:45:41.477Z,2.17
2022-08-05T18:48:11.078Z,2.35
2022-08-05T18:52:02.482Z,2.28
2022-08-05T18:53:50.378Z,2.38
2022-08-05T18:56:21.921Z,2.17
2022-08-05T18:58:54.995Z,2.10
2022-08-05T19:01:33.377Z,2.28
2022-08-05T19:04:24.195Z,2.20
2022-08-05T19:06:53.637Z,1.90
2022-08-05T19:09:22.479Z,2.40
2022-08-05T19:12:11.341Z,2.13
2022-08-05T19:15:00.535Z,1.67
2022-08-05T19:17:33.865Z,2.03
2022-08-05T19:20:18.609Z,2.28
2022-08-05T19:22:48.878Z,2.30
2022-08-05T19:25:21.624Z,2.33
2022-08-05T19:27:58.799Z,2.60
2022-08-05T19:30:27.918Z,2.08
2022-08-05T19:32:55.829Z,2.08
2022-08-05T19:35:25.264Z,2.22
2022-08-05T19:38:13.189Z,2.35
2022-08-05T19:40:44.061Z,2.15
2022-08-05T19:44:04.251Z,1.88
2022-08-05T19:46:00.159Z,3.78
2022-08-05T19:48:29.501Z,4.07
2022-08-05T19:50:57.531Z,2.72
2022-08-05T19:54:04.062Z,2.83
2022-08-05T19:56:20.531Z,2.33
2022-08-05T19:59:51.243Z,3.00
2022-08-05T20:01:48.522Z,2.10
2022-08-05T20:04:16.987Z,2.53
2022-08-05T20:06:48.102Z,2.30
2022-08-05T20:09:16.147Z,2.03
2022-08-05T20:11:48.193Z,2.47
2022-08-05T20:14:26.612Z,3.22
2022-08-05T20:16:56.175Z,3.08
2022-08-05T20:19:24.691Z,2.47
2022-08-05T20:22:04.059Z,2.72
2022-08-05T20:24:51.260Z,2.58
2022-08-05T20:27:26.727Z,2.55
2022-08-05T20:29:57.970Z,2.55
2022-08-05T20:32:27.812Z,1.98
2022-08-05T20:34:56.000Z,2.30
2022-08-05T20:38:05.875Z,2.60
2022-08-05T20:40:13.489Z,2.40
2022-08-05T20:42:41.451Z,2.97
2022-08-05T20:45:11.802Z,2.80
2022-08-05T20:47:40.070Z,1.85
2022-08-05T20:50:09.305Z,2.75
2022-08-05T20:52:41.423Z,2.67
2022-08-05T20:56:07.965Z,2.38
2022-08-05T20:57:58.154Z,3.58
2022-08-05T21:00:54.270Z,2.53
2022-08-05T21:03:16.807Z,4.53
2022-08-05T21:05:54.449Z,2.80
2022-08-05T21:08:41.919Z,2.25
2022-08-05T21:12:06.485Z,3.03
2022-08-05T21:14:01.071Z,3.25
2022-08-05T21:16:30.813Z,2.90
2022-08-05T21:19:01.200Z,2.97
2022-08-05T21:21:39.430Z,3.33
2022-08-05T21:24:32.107Z,2.95
2022-08-05T21:27:01.859Z,2.95
2022-08-05T21:29:31.767Z,3.30
2022-08-05T21:32:02.687Z,4.15
2022-08-05T21:34:31.578Z,2.70
2022-08-05T21:37:01.099Z,2.80
2022-08-05T21:39:30.082Z,3.75
2022-08-05T21:42:01.610Z,3.28
2022-08-05T21:44:33.360Z,2.95
2022-08-05T21:49:58.950Z,2.60
2022-08-05T21:52:29.044Z,3.25
2022-08-05T21:55:06.326Z,3.33
2022-08-05T21:57:42.400Z,3.08
2022-08-05T22:03:49.045Z,3.42
2022-08-05T22:06:35.274Z,4.25
2022-08-05T22:09:14.688Z,3.35
2022-08-05T22:11:46.803Z,4.15
2022-08-05T22:14:35.393Z,4.50
2022-08-05T22:17:07.443Z,3.22
2022-08-05T22:20:00.578Z,2.70
2022-08-05T22:23:02.241Z,3.05
2022-08-05T22:26:21.961Z,3.40
2022-08-05T22:28:52.456Z,3.33
2022-08-05T22:31:20.735Z,3.83
2022-08-05T22:33:55.465Z,3.42
2022-08-05T22:36:24.812Z,3.47
2022-08-05T22:38:53.831Z,3.13
2022-08-05T22:41:26.200Z,3.38
2022-08-05T22:44:11.976Z,3.47
2022-08-05T22:46:59.167Z,3.13
2022-08-05T22:50:20.932Z,2.75
2022-08-05T22:52:22.762Z,3.00
2022-08-05T22:54:58.758Z,3.13
2022-08-05T22:57:26.965Z,2.75
2022-08-05T23:00:23.095Z,2.35
2022-08-05T23:03:13.483Z,3.28
2022-08-05T23:05:42.003Z,3.05
2022-08-05T23:08:29.034Z,3.15
2022-08-05T23:14:22.379Z,3.03
2022-08-05T23:17:09.154Z,3.15
2022-08-05T23:19:46.692Z,4.25
2022-08-05T23:22:42.786Z,2.90
2022-08-05T23:25:11.447Z,4.50
2022-08-05T23:27:42.442Z,3.42
2022-08-05T23:31:16.119Z,2.88
2022-08-05T23:34:04.030Z,3.38
2022-08-05T23:36:38.810Z,4.55
2022-08-05T23:39:32.125Z,2.85
2022-08-05T23:42:08.638Z,3.05
2022-08-05T23:44:42.769Z,2.78
2022-08-05T23:47:29.320Z,2.50
2022-08-05T23:50:01.950Z,2.72
2022-08-05T23:52:49.560Z,2.33
2022-08-05T23:55:19.475Z,2.67
2022-08-05T23:57:49.000Z,2.17
